sensor_id;sensor_type;location;lat;lon;timestamp;P1;durP1;ratioP1;P2;durP2;ratioP2
22614;SDS011;11474;50.790;0.298;2023-05-17T00:00:32;13.25;;;4.95;;
22614;SDS011;11474;50.790;0.298;2023-05-17T00:02:58;14.65;;;5.80;;
22614;SDS011;11474;50.790;0.298;2023-05-17T00:05:24;11.65;;;4.90;;
22614;SDS011;11474;50.790;0.298;2023-05-17T00:07:50;17.98;;;5.53;;
22614;SDS011;11474;50.790;0.298;2023-05-17T00:10:17;14.40;;;4.88;;
22614;SDS011;11474;50.790;0.298;2023-05-17T00:12:43;13.07;;;5.22;;
22614;SDS011;11474;50.790;0.298;2023-05-17T00:15:09;19.83;;;5.38;;
22614;SDS011;11474;50.790;0.298;2023-05-17T00:17:35;11.65;;;5.60;;
22614;SDS011;11474;50.790;0.298;2023-05-17T00:20:02;13.68;;;5.70;;
22614;SDS011;11474;50.790;0.298;2023-05-17T00:22:28;18.60;;;6.47;;
22614;SDS011;11474;50.790;0.298;2023-05-17T00:24:55;15.73;;;5.50;;
22614;SDS011;11474;50.790;0.298;2023-05-17T00:27:21;14.88;;;5.22;;
22614;SDS011;11474;50.790;0.298;2023-05-17T00:29:47;14.68;;;5.13;;
22614;SDS011;11474;50.790;0.298;2023-05-17T00:32:13;11.10;;;4.85;;
22614;SDS011;11474;50.790;0.298;2023-05-17T00:34:40;10.40;;;4.85;;
22614;SDS011;11474;50.790;0.298;2023-05-17T00:37:06;14.18;;;5.13;;
22614;SDS011;11474;50.790;0.298;2023-05-17T00:39:32;19.83;;;5.93;;
22614;SDS011;11474;50.790;0.298;2023-05-17T00:41:58;14.52;;;5.57;;
22614;SDS011;11474;50.790;0.298;2023-05-17T00:44:25;16.45;;;6.50;;
22614;SDS011;11474;50.790;0.298;2023-05-17T00:46:51;14.80;;;5.68;;
22614;SDS011;11474;50.790;0.298;2023-05-17T00:49:17;17.25;;;6.03;;
22614;SDS011;11474;50.790;0.298;2023-05-17T00:51:44;15.25;;;5.05;;
22614;SDS011;11474;50.790;0.298;2023-05-17T00:54:11;11.38;;;4.00;;
22614;SDS011;11474;50.790;0.298;2023-05-17T00:56:37;12.95;;;5.05;;
22614;SDS011;11474;50.790;0.298;2023-05-17T00:59:04;14.85;;;5.50;;
22614;SDS011;11474;50.790;0.298;2023-05-17T01:01:30;12.27;;;5.50;;
22614;SDS011;11474;50.790;0.298;2023-05-17T01:03:56;11.70;;;5.10;;
22614;SDS011;11474;50.790;0.298;2023-05-17T01:06:22;12.07;;;5.15;;
22614;SDS011;11474;50.790;0.298;2023-05-17T01:08:48;14.52;;;6.13;;
22614;SDS011;11474;50.790;0.298;2023-05-17T01:16:24;20.02;;;6.00;;
22614;SDS011;11474;50.790;0.298;2023-05-17T01:18:56;14.77;;;5.77;;
22614;SDS011;11474;50.790;0.298;2023-05-17T01:21:34;15.25;;;6.25;;
22614;SDS011;11474;50.790;0.298;2023-05-17T01:26:40;11.68;;;4.78;;
22614;SDS011;11474;50.790;0.298;2023-05-17T01:29:08;11.35;;;4.30;;
22614;SDS011;11474;50.790;0.298;2023-05-17T01:31:37;8.27;;;4.03;;
22614;SDS011;11474;50.790;0.298;2023-05-17T01:34:07;9.93;;;5.00;;
22614;SDS011;11474;50.790;0.298;2023-05-17T01:36:33;14.70;;;5.30;;
22614;SDS011;11474;50.790;0.298;2023-05-17T01:39:00;11.30;;;5.37;;
22614;SDS011;11474;50.790;0.298;2023-05-17T01:46:23;11.60;;;5.18;;
22614;SDS011;11474;50.790;0.298;2023-05-17T01:48:55;18.38;;;5.78;;
22614;SDS011;11474;50.790;0.298;2023-05-17T01:51:26;15.85;;;5.63;;
22614;SDS011;11474;50.790;0.298;2023-05-17T01:53:56;12.68;;;4.93;;
22614;SDS011;11474;50.790;0.298;2023-05-17T01:56:27;15.70;;;5.63;;
22614;SDS011;11474;50.790;0.298;2023-05-17T01:58:56;13.02;;;4.90;;
22614;SDS011;11474;50.790;0.298;2023-05-17T02:01:23;14.05;;;5.68;;
22614;SDS011;11474;50.790;0.298;2023-05-17T02:03:52;15.90;;;5.27;;
22614;SDS011;11474;50.790;0.298;2023-05-17T02:06:18;14.73;;;5.28;;
22614;SDS011;11474;50.790;0.298;2023-05-17T02:08:44;14.32;;;5.93;;
22614;SDS011;11474;50.790;0.298;2023-05-17T02:11:10;15.52;;;5.63;;
22614;SDS011;11474;50.790;0.298;2023-05-17T02:13:36;13.68;;;5.65;;
22614;SDS011;11474;50.790;0.298;2023-05-17T02:16:03;16.15;;;6.38;;
22614;SDS011;11474;50.790;0.298;2023-05-17T02:18:29;14.55;;;5.63;;
22614;SDS011;11474;50.790;0.298;2023-05-17T02:20:56;11.88;;;5.28;;
22614;SDS011;11474;50.790;0.298;2023-05-17T02:23:22;14.85;;;5.45;;
22614;SDS011;11474;50.790;0.298;2023-05-17T02:25:49;14.55;;;6.78;;
22614;SDS011;11474;50.790;0.298;2023-05-17T02:28:15;20.13;;;7.30;;
22614;SDS011;11474;50.790;0.298;2023-05-17T02:30:41;19.27;;;8.25;;
22614;SDS011;11474;50.790;0.298;2023-05-17T02:33:08;19.38;;;8.20;;
22614;SDS011;11474;50.790;0.298;2023-05-17T02:35:34;21.00;;;8.97;;
22614;SDS011;11474;50.790;0.298;2023-05-17T02:38:00;17.23;;;8.45;;
22614;SDS011;11474;50.790;0.298;2023-05-17T02:40:26;22.17;;;8.60;;
22614;SDS011;11474;50.790;0.298;2023-05-17T02:42:52;19.55;;;7.95;;
22614;SDS011;11474;50.790;0.298;2023-05-17T02:45:18;18.92;;;8.93;;
22614;SDS011;11474;50.790;0.298;2023-05-17T02:47:44;21.05;;;8.73;;
22614;SDS011;11474;50.790;0.298;2023-05-17T02:50:10;16.20;;;8.32;;
22614;SDS011;11474;50.790;0.298;2023-05-17T02:52:36;21.67;;;8.35;;
22614;SDS011;11474;50.790;0.298;2023-05-17T02:55:03;18.10;;;8.68;;
22614;SDS011;11474;50.790;0.298;2023-05-17T02:57:29;16.53;;;8.97;;
22614;SDS011;11474;50.790;0.298;2023-05-17T02:59:55;16.48;;;8.68;;
22614;SDS011;11474;50.790;0.298;2023-05-17T03:02:21;22.63;;;9.37;;
22614;SDS011;11474;50.790;0.298;2023-05-17T03:04:47;19.23;;;9.15;;
22614;SDS011;11474;50.790;0.298;2023-05-17T03:07:13;20.07;;;9.33;;
22614;SDS011;11474;50.790;0.298;2023-05-17T03:09:39;20.80;;;9.80;;
22614;SDS011;11474;50.790;0.298;2023-05-17T03:12:06;21.52;;;9.60;;
22614;SDS011;11474;50.790;0.298;2023-05-17T03:14:33;23.65;;;9.93;;
22614;SDS011;11474;50.790;0.298;2023-05-17T03:16:59;20.90;;;9.90;;
22614;SDS011;11474;50.790;0.298;2023-05-17T03:19:25;20.90;;;9.73;;
22614;SDS011;11474;50.790;0.298;2023-05-17T03:21:51;22.23;;;9.98;;
22614;SDS011;11474;50.790;0.298;2023-05-17T03:24:17;23.02;;;10.02;;
22614;SDS011;11474;50.790;0.298;2023-05-17T03:26:43;19.58;;;10.00;;
22614;SDS011;11474;50.790;0.298;2023-05-17T03:29:09;21.52;;;10.00;;
22614;SDS011;11474;50.790;0.298;2023-05-17T03:31:35;21.95;;;9.35;;
22614;SDS011;11474;50.790;0.298;2023-05-17T03:34:02;19.13;;;9.07;;
22614;SDS011;11474;50.790;0.298;2023-05-17T03:36:28;21.38;;;9.60;;
22614;SDS011;11474;50.790;0.298;2023-05-17T03:38:55;23.98;;;10.25;;
22614;SDS011;11474;50.790;0.298;2023-05-17T03:41:21;21.92;;;10.27;;
22614;SDS011;11474;50.790;0.298;2023-05-17T03:43:47;22.38;;;10.32;;
22614;SDS011;11474;50.790;0.298;2023-05-17T03:46:13;17.23;;;9.40;;
22614;SDS011;11474;50.790;0.298;2023-05-17T03:48:40;22.70;;;9.88;;
22614;SDS011;11474;50.790;0.298;2023-05-17T03:51:06;23.13;;;10.40;;
22614;SDS011;11474;50.790;0.298;2023-05-17T03:53:33;20.50;;;10.07;;
22614;SDS011;11474;50.790;0.298;2023-05-17T03:55:59;21.55;;;10.02;;
22614;SDS011;11474;50.790;0.298;2023-05-17T03:58:25;18.95;;;10.05;;
22614;SDS011;11474;50.790;0.298;2023-05-17T04:00:51;24.10;;;10.48;;
22614;SDS011;11474;50.790;0.298;2023-05-17T04:03:17;23.02;;;11.00;;
22614;SDS011;11474;50.790;0.298;2023-05-17T04:05:43;23.52;;;11.52;;
22614;SDS011;11474;50.790;0.298;2023-05-17T04:08:10;23.85;;;10.48;;
22614;SDS011;11474;50.790;0.298;2023-05-17T04:10:36;17.75;;;9.65;;
22614;SDS011;11474;50.790;0.298;2023-05-17T04:13:06;23.05;;;10.65;;
22614;SDS011;11474;50.790;0.298;2023-05-17T04:15:32;19.08;;;10.02;;
22614;SDS011;11474;50.790;0.298;2023-05-17T04:17:58;22.23;;;10.25;;
22614;SDS011;11474;50.790;0.298;2023-05-17T04:20:24;21.55;;;10.32;;
22614;SDS011;11474;50.790;0.298;2023-05-17T04:22:50;20.73;;;10.07;;
22614;SDS011;11474;50.790;0.298;2023-05-17T04:25:16;23.10;;;10.82;;
22614;SDS011;11474;50.790;0.298;2023-05-17T04:27:44;24.48;;;10.98;;
22614;SDS011;11474;50.790;0.298;2023-05-17T04:30:10;23.98;;;10.75;;
22614;SDS011;11474;50.790;0.298;2023-05-17T04:32:37;23.00;;;10.23;;
22614;SDS011;11474;50.790;0.298;2023-05-17T04:35:03;21.55;;;10.25;;
22614;SDS011;11474;50.790;0.298;2023-05-17T04:37:30;21.27;;;10.40;;
22614;SDS011;11474;50.790;0.298;2023-05-17T04:39:56;24.07;;;10.70;;
22614;SDS011;11474;50.790;0.298;2023-05-17T04:42:23;23.83;;;10.20;;
22614;SDS011;11474;50.790;0.298;2023-05-17T04:44:49;24.65;;;10.35;;
22614;SDS011;11474;50.790;0.298;2023-05-17T04:47:15;22.38;;;10.43;;
22614;SDS011;11474;50.790;0.298;2023-05-17T04:49:41;22.38;;;11.07;;
22614;SDS011;11474;50.790;0.298;2023-05-17T04:52:08;19.73;;;10.00;;
22614;SDS011;11474;50.790;0.298;2023-05-17T04:54:34;24.90;;;10.10;;
22614;SDS011;11474;50.790;0.298;2023-05-17T04:57:00;22.92;;;10.45;;
22614;SDS011;11474;50.790;0.298;2023-05-17T04:59:27;25.20;;;9.65;;
22614;SDS011;11474;50.790;0.298;2023-05-17T05:01:54;29.95;;;10.82;;
22614;SDS011;11474;50.790;0.298;2023-05-17T05:04:20;19.50;;;10.13;;
22614;SDS011;11474;50.790;0.298;2023-05-17T05:06:46;22.67;;;9.68;;
22614;SDS011;11474;50.790;0.298;2023-05-17T05:09:12;22.10;;;10.40;;
22614;SDS011;11474;50.790;0.298;2023-05-17T05:11:38;26.50;;;10.13;;
22614;SDS011;11474;50.790;0.298;2023-05-17T05:14:05;23.75;;;10.60;;
22614;SDS011;11474;50.790;0.298;2023-05-17T05:16:31;25.83;;;11.02;;
22614;SDS011;11474;50.790;0.298;2023-05-17T05:18:57;26.13;;;10.87;;
22614;SDS011;11474;50.790;0.298;2023-05-17T05:21:23;22.23;;;10.68;;
22614;SDS011;11474;50.790;0.298;2023-05-17T05:23:49;24.65;;;10.90;;
22614;SDS011;11474;50.790;0.298;2023-05-17T05:26:15;28.45;;;11.65;;
22614;SDS011;11474;50.790;0.298;2023-05-17T05:28:42;27.52;;;11.18;;
22614;SDS011;11474;50.790;0.298;2023-05-17T05:31:08;26.75;;;10.40;;
22614;SDS011;11474;50.790;0.298;2023-05-17T05:33:34;25.88;;;11.27;;
22614;SDS011;11474;50.790;0.298;2023-05-17T05:36:00;23.37;;;10.20;;
22614;SDS011;11474;50.790;0.298;2023-05-17T05:38:26;25.83;;;10.35;;
22614;SDS011;11474;50.790;0.298;2023-05-17T05:40:52;23.97;;;11.23;;
22614;SDS011;11474;50.790;0.298;2023-05-17T05:43:19;27.33;;;10.75;;
22614;SDS011;11474;50.790;0.298;2023-05-17T05:45:45;22.20;;;10.55;;
22614;SDS011;11474;50.790;0.298;2023-05-17T05:48:14;24.73;;;10.20;;
22614;SDS011;11474;50.790;0.298;2023-05-17T05:50:40;24.50;;;10.68;;
22614;SDS011;11474;50.790;0.298;2023-05-17T05:53:07;25.77;;;10.40;;
22614;SDS011;11474;50.790;0.298;2023-05-17T05:55:33;23.42;;;9.93;;
22614;SDS011;11474;50.790;0.298;2023-05-17T05:57:59;24.02;;;9.60;;
22614;SDS011;11474;50.790;0.298;2023-05-17T06:00:25;21.40;;;9.65;;
22614;SDS011;11474;50.790;0.298;2023-05-17T06:02:52;22.43;;;9.60;;
22614;SDS011;11474;50.790;0.298;2023-05-17T06:05:18;23.88;;;9.70;;
22614;SDS011;11474;50.790;0.298;2023-05-17T06:07:44;24.67;;;9.65;;
22614;SDS011;11474;50.790;0.298;2023-05-17T06:10:10;25.38;;;10.15;;
22614;SDS011;11474;50.790;0.298;2023-05-17T06:12:36;23.38;;;8.90;;
22614;SDS011;11474;50.790;0.298;2023-05-17T06:15:02;20.55;;;9.68;;
22614;SDS011;11474;50.790;0.298;2023-05-17T06:17:29;22.10;;;9.00;;
22614;SDS011;11474;50.790;0.298;2023-05-17T06:19:55;23.45;;;9.52;;
22614;SDS011;11474;50.790;0.298;2023-05-17T06:22:21;23.60;;;9.00;;
22614;SDS011;11474;50.790;0.298;2023-05-17T06:24:47;22.48;;;8.70;;
22614;SDS011;11474;50.790;0.298;2023-05-17T06:27:13;23.07;;;7.97;;
22614;SDS011;11474;50.790;0.298;2023-05-17T06:29:39;24.38;;;8.95;;
22614;SDS011;11474;50.790;0.298;2023-05-17T06:32:05;22.42;;;7.93;;
22614;SDS011;11474;50.790;0.298;2023-05-17T06:34:32;21.30;;;8.10;;
22614;SDS011;11474;50.790;0.298;2023-05-17T06:36:58;20.52;;;7.93;;
22614;SDS011;11474;50.790;0.298;2023-05-17T06:39:24;23.65;;;7.95;;
22614;SDS011;11474;50.790;0.298;2023-05-17T06:41:50;23.30;;;7.90;;
22614;SDS011;11474;50.790;0.298;2023-05-17T06:44:16;20.10;;;7.75;;
22614;SDS011;11474;50.790;0.298;2023-05-17T06:46:42;25.60;;;7.78;;
22614;SDS011;11474;50.790;0.298;2023-05-17T06:49:08;20.90;;;8.40;;
22614;SDS011;11474;50.790;0.298;2023-05-17T06:51:34;19.77;;;7.90;;
22614;SDS011;11474;50.790;0.298;2023-05-17T06:54:00;24.13;;;7.63;;
22614;SDS011;11474;50.790;0.298;2023-05-17T06:56:26;22.20;;;8.25;;
22614;SDS011;11474;50.790;0.298;2023-05-17T06:58:52;21.13;;;7.85;;
22614;SDS011;11474;50.790;0.298;2023-05-17T07:01:19;19.30;;;7.63;;
22614;SDS011;11474;50.790;0.298;2023-05-17T07:03:45;17.58;;;7.78;;
22614;SDS011;11474;50.790;0.298;2023-05-17T07:06:11;18.75;;;7.70;;
22614;SDS011;11474;50.790;0.298;2023-05-17T07:08:37;19.63;;;7.82;;
22614;SDS011;11474;50.790;0.298;2023-05-17T07:11:04;22.20;;;7.57;;
22614;SDS011;11474;50.790;0.298;2023-05-17T07:13:30;18.38;;;7.15;;
22614;SDS011;11474;50.790;0.298;2023-05-17T07:15:56;21.63;;;7.75;;
22614;SDS011;11474;50.790;0.298;2023-05-17T07:18:23;26.05;;;7.72;;
22614;SDS011;11474;50.790;0.298;2023-05-17T07:20:49;19.83;;;7.73;;
22614;SDS011;11474;50.790;0.298;2023-05-17T07:23:15;20.25;;;7.72;;
22614;SDS011;11474;50.790;0.298;2023-05-17T07:25:41;16.70;;;7.57;;
22614;SDS011;11474;50.790;0.298;2023-05-17T07:28:07;21.08;;;7.15;;
22614;SDS011;11474;50.790;0.298;2023-05-17T07:30:33;22.77;;;7.15;;
22614;SDS011;11474;50.790;0.298;2023-05-17T07:33:00;20.67;;;7.10;;
22614;SDS011;11474;50.790;0.298;2023-05-17T07:35:26;20.73;;;7.13;;
22614;SDS011;11474;50.790;0.298;2023-05-17T07:37:52;15.57;;;6.55;;
22614;SDS011;11474;50.790;0.298;2023-05-17T07:40:18;17.67;;;6.63;;
22614;SDS011;11474;50.790;0.298;2023-05-17T07:42:44;17.33;;;6.55;;
22614;SDS011;11474;50.790;0.298;2023-05-17T07:45:10;15.52;;;6.88;;
22614;SDS011;11474;50.790;0.298;2023-05-17T07:47:36;17.17;;;6.80;;
22614;SDS011;11474;50.790;0.298;2023-05-17T07:50:02;18.17;;;7.07;;
22614;SDS011;11474;50.790;0.298;2023-05-17T07:52:29;22.77;;;7.07;;
22614;SDS011;11474;50.790;0.298;2023-05-17T07:54:55;21.35;;;7.03;;
22614;SDS011;11474;50.790;0.298;2023-05-17T07:57:21;17.92;;;6.38;;
22614;SDS011;11474;50.790;0.298;2023-05-17T07:59:47;18.30;;;6.75;;
22614;SDS011;11474;50.790;0.298;2023-05-17T08:02:13;18.48;;;6.55;;
22614;SDS011;11474;50.790;0.298;2023-05-17T08:04:39;20.93;;;7.07;;
22614;SDS011;11474;50.790;0.298;2023-05-17T08:07:06;18.20;;;6.57;;
22614;SDS011;11474;50.790;0.298;2023-05-17T08:09:32;19.23;;;6.47;;
22614;SDS011;11474;50.790;0.298;2023-05-17T08:11:58;19.80;;;7.03;;
22614;SDS011;11474;50.790;0.298;2023-05-17T08:14:25;18.05;;;6.32;;
22614;SDS011;11474;50.790;0.298;2023-05-17T08:16:52;15.82;;;6.22;;
22614;SDS011;11474;50.790;0.298;2023-05-17T08:19:18;15.75;;;6.30;;
22614;SDS011;11474;50.790;0.298;2023-05-17T08:21:44;18.17;;;6.47;;
22614;SDS011;11474;50.790;0.298;2023-05-17T08:24:10;18.75;;;6.00;;
22614;SDS011;11474;50.790;0.298;2023-05-17T08:26:36;16.73;;;6.10;;
22614;SDS011;11474;50.790;0.298;2023-05-17T08:29:03;17.80;;;6.40;;
22614;SDS011;11474;50.790;0.298;2023-05-17T08:31:29;15.93;;;6.33;;
22614;SDS011;11474;50.790;0.298;2023-05-17T08:33:56;18.05;;;6.13;;
22614;SDS011;11474;50.790;0.298;2023-05-17T08:36:22;14.30;;;6.00;;
22614;SDS011;11474;50.790;0.298;2023-05-17T08:38:49;17.33;;;6.47;;
22614;SDS011;11474;50.790;0.298;2023-05-17T08:41:16;15.77;;;6.07;;
22614;SDS011;11474;50.790;0.298;2023-05-17T08:43:43;16.75;;;6.07;;
22614;SDS011;11474;50.790;0.298;2023-05-17T08:46:09;16.35;;;5.57;;
22614;SDS011;11474;50.790;0.298;2023-05-17T08:48:35;20.27;;;6.30;;
22614;SDS011;11474;50.790;0.298;2023-05-17T08:51:06;16.80;;;5.78;;
22614;SDS011;11474;50.790;0.298;2023-05-17T08:53:33;17.98;;;5.75;;
22614;SDS011;11474;50.790;0.298;2023-05-17T08:55:59;15.23;;;5.53;;
22614;SDS011;11474;50.790;0.298;2023-05-17T08:58:26;19.05;;;6.05;;
22614;SDS011;11474;50.790;0.298;2023-05-17T09:00:53;15.13;;;5.55;;
22614;SDS011;11474;50.790;0.298;2023-05-17T09:03:21;14.57;;;5.75;;
22614;SDS011;11474;50.790;0.298;2023-05-17T09:05:51;15.67;;;5.40;;
22614;SDS011;11474;50.790;0.298;2023-05-17T09:08:21;15.35;;;5.60;;
22614;SDS011;11474;50.790;0.298;2023-05-17T09:10:47;19.48;;;6.20;;
22614;SDS011;11474;50.790;0.298;2023-05-17T09:13:14;17.00;;;6.35;;
22614;SDS011;11474;50.790;0.298;2023-05-17T09:15:41;17.98;;;6.03;;
22614;SDS011;11474;50.790;0.298;2023-05-17T09:18:09;20.80;;;5.95;;
22614;SDS011;11474;50.790;0.298;2023-05-17T09:20:36;18.40;;;6.88;;
22614;SDS011;11474;50.790;0.298;2023-05-17T09:23:04;16.90;;;6.90;;
22614;SDS011;11474;50.790;0.298;2023-05-17T09:25:31;23.77;;;7.77;;
22614;SDS011;11474;50.790;0.298;2023-05-17T09:28:01;18.08;;;7.13;;
22614;SDS011;11474;50.790;0.298;2023-05-17T09:30:27;22.15;;;6.57;;
22614;SDS011;11474;50.790;0.298;2023-05-17T09:32:54;14.55;;;6.30;;
22614;SDS011;11474;50.790;0.298;2023-05-17T09:35:30;17.48;;;6.80;;
22614;SDS011;11474;50.790;0.298;2023-05-17T09:38:03;20.98;;;7.15;;
22614;SDS011;11474;50.790;0.298;2023-05-17T09:40:30;22.58;;;7.28;;
22614;SDS011;11474;50.790;0.298;2023-05-17T09:42:57;21.67;;;6.90;;
22614;SDS011;11474;50.790;0.298;2023-05-17T09:45:23;18.38;;;6.50;;
22614;SDS011;11474;50.790;0.298;2023-05-17T09:47:50;20.95;;;8.00;;
22614;SDS011;11474;50.790;0.298;2023-05-17T09:50:17;21.67;;;6.67;;
22614;SDS011;11474;50.790;0.298;2023-05-17T09:52:44;17.65;;;6.55;;
22614;SDS011;11474;50.790;0.298;2023-05-17T09:55:10;24.80;;;8.95;;
22614;SDS011;11474;50.790;0.298;2023-05-17T09:57:37;22.13;;;7.95;;
22614;SDS011;11474;50.790;0.298;2023-05-17T10:00:05;23.13;;;8.05;;
22614;SDS011;11474;50.790;0.298;2023-05-17T10:02:37;18.85;;;7.88;;
22614;SDS011;11474;50.790;0.298;2023-05-17T10:05:09;21.70;;;6.53;;
22614;SDS011;11474;50.790;0.298;2023-05-17T10:07:36;20.67;;;6.57;;
22614;SDS011;11474;50.790;0.298;2023-05-17T10:10:03;17.88;;;7.10;;
22614;SDS011;11474;50.790;0.298;2023-05-17T10:12:29;18.13;;;6.45;;
22614;SDS011;11474;50.790;0.298;2023-05-17T10:14:59;20.77;;;6.65;;
22614;SDS011;11474;50.790;0.298;2023-05-17T10:17:28;16.70;;;6.50;;
22614;SDS011;11474;50.790;0.298;2023-05-17T10:19:56;15.48;;;6.65;;
22614;SDS011;11474;50.790;0.298;2023-05-17T10:22:22;19.83;;;7.05;;
22614;SDS011;11474;50.790;0.298;2023-05-17T10:24:49;20.42;;;7.05;;
22614;SDS011;11474;50.790;0.298;2023-05-17T10:27:16;19.90;;;6.88;;
22614;SDS011;11474;50.790;0.298;2023-05-17T10:29:42;17.75;;;7.32;;
22614;SDS011;11474;50.790;0.298;2023-05-17T10:32:09;22.85;;;8.20;;
22614;SDS011;11474;50.790;0.298;2023-05-17T10:34:38;24.67;;;8.52;;
22614;SDS011;11474;50.790;0.298;2023-05-17T10:37:04;16.73;;;6.90;;
22614;SDS011;11474;50.790;0.298;2023-05-17T10:39:32;18.23;;;7.13;;
22614;SDS011;11474;50.790;0.298;2023-05-17T10:42:02;18.75;;;6.82;;
22614;SDS011;11474;50.790;0.298;2023-05-17T10:44:30;18.30;;;7.43;;
22614;SDS011;11474;50.790;0.298;2023-05-17T10:46:58;23.83;;;7.25;;
22614;SDS011;11474;50.790;0.298;2023-05-17T10:49:30;20.40;;;6.80;;
22614;SDS011;11474;50.790;0.298;2023-05-17T10:51:57;18.25;;;7.35;;
22614;SDS011;11474;50.790;0.298;2023-05-17T10:54:33;18.83;;;7.70;;
22614;SDS011;11474;50.790;0.298;2023-05-17T10:57:01;19.92;;;6.93;;
22614;SDS011;11474;50.790;0.298;2023-05-17T10:59:29;18.07;;;7.13;;
22614;SDS011;11474;50.790;0.298;2023-05-17T11:02:00;20.55;;;7.63;;
22614;SDS011;11474;50.790;0.298;2023-05-17T11:04:37;19.75;;;7.55;;
22614;SDS011;11474;50.790;0.298;2023-05-17T11:09:45;19.27;;;6.40;;
22614;SDS011;11474;50.790;0.298;2023-05-17T11:12:13;18.83;;;7.13;;
22614;SDS011;11474;50.790;0.298;2023-05-17T11:17:19;20.92;;;7.00;;
22614;SDS011;11474;50.790;0.298;2023-05-17T11:20:02;18.80;;;7.10;;
22614;SDS011;11474;50.790;0.298;2023-05-17T11:22:34;22.35;;;7.22;;
22614;SDS011;11474;50.790;0.298;2023-05-17T11:25:04;22.35;;;7.05;;
22614;SDS011;11474;50.790;0.298;2023-05-17T11:27:34;17.92;;;6.60;;
22614;SDS011;11474;50.790;0.298;2023-05-17T11:30:08;18.38;;;6.80;;
22614;SDS011;11474;50.790;0.298;2023-05-17T11:32:34;17.75;;;6.65;;
22614;SDS011;11474;50.790;0.298;2023-05-17T11:35:00;18.88;;;7.07;;
22614;SDS011;11474;50.790;0.298;2023-05-17T11:37:27;17.25;;;6.80;;
22614;SDS011;11474;50.790;0.298;2023-05-17T11:40:00;18.50;;;6.82;;
22614;SDS011;11474;50.790;0.298;2023-05-17T11:42:27;19.98;;;7.40;;
22614;SDS011;11474;50.790;0.298;2023-05-17T11:44:55;20.25;;;7.80;;
22614;SDS011;11474;50.790;0.298;2023-05-17T11:47:22;21.42;;;7.07;;
22614;SDS011;11474;50.790;0.298;2023-05-17T11:49:49;22.35;;;6.70;;
22614;SDS011;11474;50.790;0.298;2023-05-17T11:52:16;19.88;;;6.95;;
22614;SDS011;11474;50.790;0.298;2023-05-17T11:54:43;16.83;;;6.75;;
22614;SDS011;11474;50.790;0.298;2023-05-17T11:57:10;23.08;;;7.80;;
22614;SDS011;11474;50.790;0.298;2023-05-17T11:59:41;18.17;;;6.20;;
22614;SDS011;11474;50.790;0.298;2023-05-17T12:02:07;22.17;;;7.60;;
22614;SDS011;11474;50.790;0.298;2023-05-17T12:04:37;22.60;;;7.07;;
22614;SDS011;11474;50.790;0.298;2023-05-17T12:07:04;17.23;;;7.10;;
22614;SDS011;11474;50.790;0.298;2023-05-17T12:09:33;21.43;;;7.77;;
22614;SDS011;11474;50.790;0.298;2023-05-17T12:12:01;20.00;;;7.45;;
22614;SDS011;11474;50.790;0.298;2023-05-17T12:14:28;17.60;;;7.03;;
22614;SDS011;11474;50.790;0.298;2023-05-17T12:16:54;22.23;;;7.23;;
22614;SDS011;11474;50.790;0.298;2023-05-17T12:19:22;21.83;;;6.78;;
22614;SDS011;11474;50.790;0.298;2023-05-17T12:21:50;18.70;;;7.18;;
22614;SDS011;11474;50.790;0.298;2023-05-17T12:24:16;19.90;;;7.68;;
22614;SDS011;11474;50.790;0.298;2023-05-17T12:26:43;27.60;;;8.02;;
22614;SDS011;11474;50.790;0.298;2023-05-17T12:29:09;20.92;;;7.22;;
22614;SDS011;11474;50.790;0.298;2023-05-17T12:31:36;18.30;;;8.00;;
22614;SDS011;11474;50.790;0.298;2023-05-17T12:34:06;17.67;;;7.40;;
22614;SDS011;11474;50.790;0.298;2023-05-17T12:36:33;17.95;;;6.85;;
22614;SDS011;11474;50.790;0.298;2023-05-17T12:39:00;18.90;;;6.83;;
22614;SDS011;11474;50.790;0.298;2023-05-17T12:41:26;18.17;;;6.88;;
22614;SDS011;11474;50.790;0.298;2023-05-17T12:43:52;19.55;;;7.22;;
22614;SDS011;11474;50.790;0.298;2023-05-17T12:46:21;23.67;;;7.03;;
22614;SDS011;11474;50.790;0.298;2023-05-17T12:48:48;22.35;;;6.60;;
22614;SDS011;11474;50.790;0.298;2023-05-17T12:51:16;18.00;;;6.55;;
22614;SDS011;11474;50.790;0.298;2023-05-17T12:53:52;20.67;;;7.10;;
22614;SDS011;11474;50.790;0.298;2023-05-17T12:56:28;23.00;;;7.00;;
22614;SDS011;11474;50.790;0.298;2023-05-17T13:01:33;17.35;;;5.78;;
22614;SDS011;11474;50.790;0.298;2023-05-17T13:04:00;14.32;;;5.47;;
22614;SDS011;11474;50.790;0.298;2023-05-17T13:06:26;18.13;;;6.57;;
22614;SDS011;11474;50.790;0.298;2023-05-17T13:08:58;18.35;;;6.10;;
22614;SDS011;11474;50.790;0.298;2023-05-17T13:11:25;17.90;;;6.68;;
22614;SDS011;11474;50.790;0.298;2023-05-17T13:13:51;19.75;;;5.97;;
22614;SDS011;11474;50.790;0.298;2023-05-17T13:16:26;19.37;;;6.27;;
22614;SDS011;11474;50.790;0.298;2023-05-17T13:18:52;18.08;;;6.10;;
22614;SDS011;11474;50.790;0.298;2023-05-17T13:21:19;17.85;;;5.38;;
22614;SDS011;11474;50.790;0.298;2023-05-17T13:23:46;19.42;;;6.00;;
22614;SDS011;11474;50.790;0.298;2023-05-17T13:26:12;18.45;;;5.35;;
22614;SDS011;11474;50.790;0.298;2023-05-17T13:28:39;21.17;;;5.67;;
22614;SDS011;11474;50.790;0.298;2023-05-17T13:31:05;13.07;;;5.30;;
22614;SDS011;11474;50.790;0.298;2023-05-17T13:33:31;15.30;;;5.50;;
22614;SDS011;11474;50.790;0.298;2023-05-17T13:35:57;14.57;;;5.30;;
22614;SDS011;11474;50.790;0.298;2023-05-17T13:38:23;14.18;;;5.10;;
22614;SDS011;11474;50.790;0.298;2023-05-17T13:40:49;12.97;;;5.10;;
22614;SDS011;11474;50.790;0.298;2023-05-17T13:43:16;14.60;;;5.45;;
22614;SDS011;11474;50.790;0.298;2023-05-17T13:45:42;19.80;;;5.77;;
22614;SDS011;11474;50.790;0.298;2023-05-17T13:48:08;13.80;;;5.05;;
22614;SDS011;11474;50.790;0.298;2023-05-17T13:50:34;17.52;;;5.72;;
22614;SDS011;11474;50.790;0.298;2023-05-17T13:53:01;18.00;;;5.72;;
22614;SDS011;11474;50.790;0.298;2023-05-17T13:55:27;15.63;;;5.57;;
22614;SDS011;11474;50.790;0.298;2023-05-17T13:57:53;16.90;;;5.53;;
22614;SDS011;11474;50.790;0.298;2023-05-17T14:00:20;19.23;;;5.63;;
22614;SDS011;11474;50.790;0.298;2023-05-17T14:02:46;17.85;;;5.85;;
22614;SDS011;11474;50.790;0.298;2023-05-17T14:05:12;17.70;;;6.38;;
22614;SDS011;11474;50.790;0.298;2023-05-17T14:07:39;21.38;;;6.78;;
22614;SDS011;11474;50.790;0.298;2023-05-17T14:10:10;19.45;;;6.07;;
22614;SDS011;11474;50.790;0.298;2023-05-17T14:12:39;20.20;;;6.20;;
22614;SDS011;11474;50.790;0.298;2023-05-17T14:15:06;16.52;;;6.15;;
22614;SDS011;11474;50.790;0.298;2023-05-17T14:17:33;20.52;;;5.97;;
22614;SDS011;11474;50.790;0.298;2023-05-17T14:19:59;17.02;;;5.90;;
22614;SDS011;11474;50.790;0.298;2023-05-17T14:22:25;16.38;;;6.18;;
22614;SDS011;11474;50.790;0.298;2023-05-17T14:24:51;22.10;;;7.10;;
22614;SDS011;11474;50.790;0.298;2023-05-17T14:27:17;19.38;;;6.05;;
22614;SDS011;11474;50.790;0.298;2023-05-17T14:29:43;18.05;;;6.47;;
22614;SDS011;11474;50.790;0.298;2023-05-17T14:32:09;16.77;;;5.90;;
22614;SDS011;11474;50.790;0.298;2023-05-17T14:34:38;19.63;;;6.50;;
22614;SDS011;11474;50.790;0.298;2023-05-17T14:37:04;20.63;;;6.53;;
22614;SDS011;11474;50.790;0.298;2023-05-17T14:39:30;19.38;;;6.30;;
22614;SDS011;11474;50.790;0.298;2023-05-17T14:41:56;18.90;;;5.88;;
22614;SDS011;11474;50.790;0.298;2023-05-17T14:44:22;18.05;;;6.88;;
22614;SDS011;11474;50.790;0.298;2023-05-17T14:46:48;17.33;;;6.25;;
22614;SDS011;11474;50.790;0.298;2023-05-17T14:49:14;16.20;;;6.68;;
22614;SDS011;11474;50.790;0.298;2023-05-17T14:51:40;17.15;;;6.15;;